Time;durP1;ratioP1;P1;durP2;ratioP2;P2;SDS_P1;SDS_P2;PMS_P1;PMS_P2;Temp;Humidity;BMP_temperature;BMP_pressure;BME280_temperature;BME280_humidity;BME280_pressure;Samples;Min_cycle;Max_cycle;Signal;HPM_P1;HPM_P2
2021/07/09 00:01:28;;;;;;;;;;;;;;;;;;5116883;27;19936;-69
2021/07/09 00:03:53;;;;;;;;;;;;;;;;;;5114210;27;19912;-69
2021/07/09 00:06:21;;;;;;;;;;;;;;;;;;5118202;27;19930;-69
2021/07/09 00:08:47;;;;;;;;;;;;;;;;;;5118133;27;19908;-69
2021/07/09 00:11:13;;;;;;;;;;;;;;;;;;5116391;27;19946;-69
2021/07/09 00:13:39;;;;;;;;;;;;;;;;;;5116494;27;19916;-69
2021/07/09 00:16:05;;;;;;;;;;;;;;;;;;5115941;27;19911;-69
2021/07/09 00:18:30;;;;;;;;;;;;;;;;;;5115735;27;20325;-69
2021/07/09 00:20:56;;;;;;;;;;;;;;;;;;5118258;27;19959;-69
2021/07/09 00:23:23;;;;;;;;;;;;;;;;;;5116800;27;19915;-69
2021/07/09 00:25:48;;;;;;;;;;;;;;;;;;5116166;27;20287;-69
2021/07/09 00:28:14;;;;;;;;;;;;;;;;;;5116110;27;19915;-69
2021/07/09 00:30:40;;;;;;;;;;;;;;;;;;5112372;28;20375;-69
2021/07/09 00:33:06;;;;;;;;;;;;;;;;;;5119768;27;19908;-69
2021/07/09 00:35:32;;;;;;;;;;;;;;;;;;5116603;27;19959;-69
2021/07/09 00:37:58;;;;;;;;;;;;;;;;;;5116568;27;19919;-68
2021/07/09 00:40:24;;;;;;;;;;;;;;;;;;5116220;27;19918;-68
2021/07/09 00:42:50;;;;;;;;;;;;;;;;;;5112336;27;19974;-69
2021/07/09 00:45:15;;;;;;;;;;;;;;;;;;5118757;27;19908;-69
2021/07/09 00:47:41;;;;;;;;;;;;;;;;;;5116995;27;20404;-69
2021/07/09 00:50:07;;;;;;;;;;;;;;;;;;5115069;27;19975;-68
2021/07/09 00:52:33;;;;;;;;;;;;;;;;;;5116271;27;19922;-68
2021/07/09 00:54:59;;;;;;;;;;;;;;;;;;5114318;27;19919;-69
2021/07/09 00:57:26;;;;;;;;;;;;;;;;;;5116268;27;19908;-69
2021/07/09 00:59:52;;;;;;;;;;;;;;;;;;5117026;27;20023;-69
2021/07/09 01:02:18;;;;;;;;;;;;;;;;;;5115746;27;20478;-69
2021/07/09 01:04:43;;;;;;;;;;;;;;;;;;5115842;27;19916;-69
2021/07/09 01:07:09;;;;;;;;;;;;;;;;;;5115231;27;19911;-69
2021/07/09 01:09:35;;;;;;;;;;;;;;;;;;5113033;27;19915;-68
2021/07/09 01:12:01;;;;;;;;;;;;;;;;;;5118203;27;19907;-69
2021/07/09 01:14:27;;;;;;;;;;;;;;;;;;5115464;27;20351;-69
2021/07/09 01:16:53;;;;;;;;;;;;;;;;;;5115943;27;20014;-69
2021/07/09 01:19:19;;;;;;;;;;;;;;;;;;5115560;27;19911;-69
2021/07/09 01:21:45;;;;;;;;;;;;;;;;;;5092845;28;19941;-69
2021/07/09 01:24:11;;;;;;;;;;;;;;;;;;5119081;27;19907;-69
2021/07/09 01:26:36;;;;;;;;;;;;;;;;;;5115053;27;19912;-69
2021/07/09 01:29:02;;;;;;;;;;;;;;;;;;5115720;27;20368;-69
2021/07/09 01:31:28;;;;;;;;;;;;;;;;;;5115253;27;19919;-69
2021/07/09 01:33:54;;;;;;;;;;;;;;;;;;5112925;27;19934;-69
2021/07/09 01:36:21;;;;;;;;;;;;;;;;;;5116137;27;19930;-69
2021/07/09 01:38:47;;;;;;;;;;;;;;;;;;5115351;27;19908;-69
2021/07/09 01:41:13;;;;;;;;;;;;;;;;;;5115126;27;19962;-68
2021/07/09 01:43:39;;;;;;;;;;;;;;;;;;5114979;27;20375;-68
2021/07/09 01:46:05;;;;;;;;;;;;;;;;;;5113814;27;19912;-68
2021/07/09 01:48:31;;;;;;;;;;;;;;;;;;5113646;27;19975;-68
2021/07/09 01:50:56;;;;;;;;;;;;;;;;;;5116796;27;19919;-68
2021/07/09 01:53:22;;;;;;;;;;;;;;;;;;5115049;27;19922;-67
2021/07/09 01:55:48;;;;;;;;;;;;;;;;;;5114473;27;19911;-68
2021/07/09 01:58:14;;;;;;;;;;;;;;;;;;5114488;27;19918;-68
2021/07/09 02:00:40;;;;;;;;;;;;;;;;;;5111173;28;19919;-70
2021/07/09 02:03:06;;;;;;;;;;;;;;;;;;5117700;27;19907;-68
2021/07/09 02:05:32;;;;;;;;;;;;;;;;;;5114828;27;19918;-68
2021/07/09 02:07:58;;;;;;;;;;;;;;;;;;5096434;28;19935;-68
2021/07/09 02:10:24;;;;;;;;;;;;;;;;;;5114001;27;20032;-68
2021/07/09 02:12:52;;;;;;;;;;;;;;;;;;5110983;27;19938;-68
2021/07/09 02:15:18;;;;;;;;;;;;;;;;;;5116228;27;20356;-68
2021/07/09 02:17:44;;;;;;;;;;;;;;;;;;5115618;27;19915;-68
2021/07/09 02:20:10;;;;;;;;;;;;;;;;;;5114150;27;19919;-68
2021/07/09 02:22:36;;;;;;;;;;;;;;;;;;5114024;27;20343;-68
2021/07/09 02:25:05;;;;;;;;;;;;;;;;;;5112238;27;20367;-68
2021/07/09 02:27:31;;;;;;;;;;;;;;;;;;5112950;27;19915;-68
2021/07/09 02:29:57;;;;;;;;;;;;;;;;;;5116016;27;20303;-68
2021/07/09 02:32:23;;;;;;;;;;;;;;;;;;5114409;27;19957;-67
2021/07/09 02:34:48;;;;;;;;;;;;;;;;;;5113994;27;19966;-67
2021/07/09 02:37:14;;;;;;;;;;;;;;;;;;5113803;27;19919;-68
2021/07/09 02:39:40;;;;;;;;;;;;;;;;;;5110183;28;19964;-68
2021/07/09 02:42:06;;;;;;;;;;;;;;;;;;5117349;27;19907;-68
2021/07/09 02:44:32;;;;;;;;;;;;;;;;;;5114078;27;19912;-68
2021/07/09 02:46:58;;;;;;;;;;;;;;;;;;5113255;27;19959;-68
2021/07/09 02:49:24;;;;;;;;;;;;;;;;;;5113806;27;20370;-68
2021/07/09 02:51:50;;;;;;;;;;;;;;;;;;5110695;27;19913;-68
2021/07/09 02:54:16;;;;;;;;;;;;;;;;;;5115974;27;19925;-68
2021/07/09 02:56:41;;;;;;;;;;;;;;;;;;5114212;27;19964;-68
2021/07/09 02:59:07;;;;;;;;;;;;;;;;;;5113941;27;20291;-68
2021/07/09 03:01:34;;;;;;;;;;;;;;;;;;5113869;27;19923;-67
2021/07/09 03:04:00;;;;;;;;;;;;;;;;;;5111821;28;19965;-68
2021/07/09 03:06:26;;;;;;;;;;;;;;;;;;5114053;28;19908;-68
2021/07/09 03:08:52;;;;;;;;;;;;;;;;;;5114365;27;19907;-67
2021/07/09 03:11:18;;;;;;;;;;;;;;;;;;5113225;28;19920;-67
2021/07/09 03:13:46;;;;;;;;;;;;;;;;;;5113194;28;20661;-69
2021/07/09 03:16:12;;;;;;;;;;;;;;;;;;5113338;28;19951;-69
2021/07/09 03:18:38;;;;;;;;;;;;;;;;;;5109899;28;19916;-67
2021/07/09 03:21:03;;;;;;;;;;;;;;;;;;5116484;28;19927;-67
2021/07/09 03:23:29;;;;;;;;;;;;;;;;;;5113566;28;19912;-67
2021/07/09 03:25:57;;;;;;;;;;;;;;;;;;5113244;28;19915;-69
2021/07/09 03:28:23;;;;;;;;;;;;;;;;;;5113664;28;20358;-70
2021/07/09 03:30:49;;;;;;;;;;;;;;;;;;5110425;28;20003;-62
2021/07/09 03:33:15;;;;;;;;;;;;;;;;;;5115629;28;20002;-62
2021/07/09 03:35:42;;;;;;;;;;;;;;;;;;5114117;28;20404;-60
2021/07/09 03:38:08;;;;;;;;;;;;;;;;;;5113480;28;19964;-62
2021/07/09 03:40:34;;;;;;;;;;;;;;;;;;5113110;28;19916;-59
2021/07/09 03:43:00;;;;;;;;;;;;;;;;;;5111341;28;19942;-59
2021/07/09 03:45:26;;;;;;;;;;;;;;;;;;5113666;28;19915;-60
2021/07/09 03:47:51;;;;;;;;;;;;;;;;;;5114233;28;20010;-60
2021/07/09 03:50:17;;;;;;;;;;;;;;;;;;5113396;28;19927;-59
2021/07/09 03:52:43;;;;;;;;;;;;;;;;;;5113001;28;19922;-62
2021/07/09 03:55:09;;;;;;;;;;;;;;;;;;5112461;28;20326;-60
2021/07/09 03:57:35;;;;;;;;;;;;;;;;;;5092796;28;20327;-59
2021/07/09 04:00:01;;;;;;;;;;;;;;;;;;5115735;28;20283;-60
2021/07/09 04:02:27;;;;;;;;;;;;;;;;;;5114891;27;19951;-59
2021/07/09 04:04:52;;;;;;;;;;;;;;;;;;5117104;27;20351;-59
2021/07/09 04:07:18;;;;;;;;;;;;;;;;;;5117066;27;19911;-59
2021/07/09 04:09:44;;;;;;;;;;;;;;;;;;5094329;28;19920;-62
2021/07/09 04:12:10;;;;;;;;;;;;;;;;;;5119909;27;19911;-61
2021/07/09 04:14:36;;;;;;;;;;;;;;;;;;5117114;27;19915;-61
2021/07/09 04:17:02;;;;;;;;;;;;;;;;;;5117043;27;19923;-58
2021/07/09 04:19:28;;;;;;;;;;;;;;;;;;5117076;27;19962;-59
2021/07/09 04:21:53;;;;;;;;;;;;;;;;;;5113414;27;19916;-61
2021/07/09 04:24:19;;;;;;;;;;;;;;;;;;5117808;27;19908;-62
2021/07/09 04:26:45;;;;;;;;;;;;;;;;;;5117848;27;20320;-61
2021/07/09 04:29:11;;;;;;;;;;;;;;;;;;5116637;27;19957;-61
2021/07/09 04:31:37;;;;;;;;;;;;;;;;;;5116435;27;19946;-61
2021/07/09 04:34:03;;;;;;;;;;;;;;;;;;5114699;27;19984;-62
2021/07/09 04:36:29;;;;;;;;;;;;;;;;;;5115976;27;20151;-59
2021/07/09 04:38:55;;;;;;;;;;;;;;;;;;5117635;27;20371;-59
2021/07/09 04:41:20;;;;;;;;;;;;;;;;;;5116210;27;19942;-62
2021/07/09 04:43:46;;;;;;;;;;;;;;;;;;5116372;27;19912;-62
2021/07/09 04:46:12;;;;;;;;;;;;;;;;;;5115606;27;19919;-62
2021/07/09 04:48:38;;;;;;;;;;;;;;;;;;5113615;27;20283;-59
2021/07/09 04:51:04;;;;;;;;;;;;;;;;;;5118929;27;20007;-59
2021/07/09 04:53:30;;;;;;;;;;;;;;;;;;5115964;27;20367;-62
2021/07/09 04:55:56;;;;;;;;;;;;;;;;;;5116291;27;20387;-62
2021/07/09 04:58:22;;;;;;;;;;;;;;;;;;5115904;27;19965;-62
2021/07/09 05:00:48;;;;;;;;;;;;;;;;;;5112206;27;19912;-62
2021/07/09 05:03:13;;;;;;;;;;;;;;;;;;5118945;27;19912;-62
2021/07/09 05:05:40;;;;;;;;;;;;;;;;;;5117563;27;19953;-60
2021/07/09 05:08:06;;;;;;;;;;;;;;;;;;5116223;27;20002;-60
2021/07/09 05:10:32;;;;;;;;;;;;;;;;;;5115875;27;19999;-59
2021/07/09 05:12:58;;;;;;;;;;;;;;;;;;5112555;27;19934;-62
2021/07/09 05:15:24;;;;;;;;;;;;;;;;;;5116054;27;19923;-61
2021/07/09 05:17:49;;;;;;;;;;;;;;;;;;5116878;27;20010;-60
2021/07/09 05:20:15;;;;;;;;;;;;;;;;;;5126166;27;20278;-59
2021/07/09 05:22:41;;;;;;;;;;;;;;;;;;5124097;27;19919;-62
2021/07/09 05:25:07;;;;;;;;;;;;;;;;;;5122748;27;20390;-63
2021/07/09 05:27:33;;;;;;;;;;;;;;;;;;5122901;27;19912;-62
2021/07/09 05:29:59;;;;;;;;;;;;;;;;;;5127706;27;20003;-61
2021/07/09 05:32:25;;;;;;;;;;;;;;;;;;5128255;27;20382;-62
2021/07/09 05:34:51;;;;;;;;;;;;;;;;;;5121836;27;19912;-59
2021/07/09 05:37:17;;;;;;;;;;;;;;;;;;5114950;27;20431;-61
2021/07/09 05:39:43;;;;;;;;;;;;;;;;;;5111431;28;20363;-62
2021/07/09 05:42:09;;;;;;;;;;;;;;;;;;5118676;27;19912;-61
2021/07/09 05:44:34;;;;;;;;;;;;;;;;;;5114879;27;19914;-62
2021/07/09 05:47:00;;;;;;;;;;;;;;;;;;5115131;27;19981;-60
2021/07/09 05:49:26;;;;;;;;;;;;;;;;;;5114801;27;19914;-59
2021/07/09 05:51:52;;;;;;;;;;;;;;;;;;5111734;27;19918;-60
2021/07/09 05:54:18;;;;;;;;;;;;;;;;;;5116432;27;19908;-60
2021/07/09 05:56:44;;;;;;;;;;;;;;;;;;5115722;27;20394;-59
2021/07/09 05:59:10;;;;;;;;;;;;;;;;;;5114493;27;19908;-60
2021/07/09 06:01:36;;;;;;;;;;;;;;;;;;5114501;27;19962;-58
2021/07/09 06:04:01;;;;;;;;;;;;;;;;;;5112815;27;19972;-58
2021/07/09 06:06:27;;;;;;;;;;;;;;;;;;5114684;27;19919;-59
2021/07/09 06:08:53;;;;;;;;;;;;;;;;;;5115720;27;20290;-58
2021/07/09 06:11:19;;;;;;;;;;;;;;;;;;5113806;27;19966;-58
2021/07/09 06:13:45;;;;;;;;;;;;;;;;;;5114522;27;20373;-58
2021/07/09 06:16:11;;;;;;;;;;;;;;;;;;5116106;27;19912;-58
2021/07/09 06:18:37;;;;;;;;;;;;;;;;;;5114057;27;19920;-60
2021/07/09 06:21:03;;;;;;;;;;;;;;;;;;5117176;27;19907;-58
2021/07/09 06:23:28;;;;;;;;;;;;;;;;;;5114135;27;20331;-59
2021/07/09 06:25:55;;;;;;;;;;;;;;;;;;5113696;27;19919;-59
2021/07/09 06:28:21;;;;;;;;;;;;;;;;;;5113910;27;19990;-59
2021/07/09 06:30:47;;;;;;;;;;;;;;;;;;5109850;28;20015;-59
2021/07/09 06:33:13;;;;;;;;;;;;;;;;;;5117432;27;19908;-59
2021/07/09 06:35:39;;;;;;;;;;;;;;;;;;5115822;27;19972;-59
2021/07/09 06:38:05;;;;;;;;;;;;;;;;;;5113870;27;20313;-59
2021/07/09 06:40:30;;;;;;;;;;;;;;;;;;5114179;27;19912;-59
2021/07/09 06:42:56;;;;;;;;;;;;;;;;;;5110915;27;19912;-59
2021/07/09 06:45:22;;;;;;;;;;;;;;;;;;5112931;27;19915;-59
2021/07/09 06:47:48;;;;;;;;;;;;;;;;;;5113205;27;19912;-59
2021/07/09 06:50:14;;;;;;;;;;;;;;;;;;5111921;27;19923;-59
2021/07/09 06:52:40;;;;;;;;;;;;;;;;;;5112540;27;19956;-60
2021/07/09 06:55:06;;;;;;;;;;;;;;;;;;5111149;27;20002;-59
2021/07/09 06:57:32;;;;;;;;;;;;;;;;;;5112089;27;19907;-59
2021/07/09 06:59:58;;;;;;;;;;;;;;;;;;5115310;27;19907;-59
2021/07/09 07:02:24;;;;;;;;;;;;;;;;;;5113659;27;20394;-59
2021/07/09 07:04:50;;;;;;;;;;;;;;;;;;5113833;27;19916;-60
2021/07/09 07:07:16;;;;;;;;;;;;;;;;;;5113863;28;19965;-59
2021/07/09 07:09:42;;;;;;;;;;;;;;;;;;5092949;28;19919;-59
2021/07/09 07:12:08;;;;;;;;;;;;;;;;;;5117266;27;19998;-59
2021/07/09 07:14:34;;;;;;;;;;;;;;;;;;5113230;28;19923;-59
2021/07/09 07:16:59;;;;;;;;;;;;;;;;;;5113912;28;20309;-59
2021/07/09 07:19:25;;;;;;;;;;;;;;;;;;5113342;28;19954;-59
2021/07/09 07:21:51;;;;;;;;;;;;;;;;;;5110262;28;20434;-59
2021/07/09 07:24:17;;;;;;;;;;;;;;;;;;5115622;28;19986;-59
2021/07/09 07:26:43;;;;;;;;;;;;;;;;;;5114490;28;20043;-59
2021/07/09 07:29:09;;;;;;;;;;;;;;;;;;5113745;28;20263;-59
2021/07/09 07:31:35;;;;;;;;;;;;;;;;;;5113258;28;19927;-59
2021/07/09 07:34:01;;;;;;;;;;;;;;;;;;5111611;28;19908;-59
2021/07/09 07:36:27;;;;;;;;;;;;;;;;;;5114479;28;19912;-59
2021/07/09 07:38:53;;;;;;;;;;;;;;;;;;5118920;27;19911;-59
2021/07/09 07:41:19;;;;;;;;;;;;;;;;;;5099124;28;20305;-59
2021/07/09 07:43:45;;;;;;;;;;;;;;;;;;5117428;27;19919;-59
2021/07/09 07:46:11;;;;;;;;;;;;;;;;;;5116582;27;19915;-59
2021/07/09 07:48:36;;;;;;;;;;;;;;;;;;5115092;27;20367;-59
2021/07/09 07:51:02;;;;;;;;;;;;;;;;;;5102734;28;19916;-59
2021/07/09 07:53:28;;;;;;;;;;;;;;;;;;5117503;27;19908;-59
2021/07/09 07:55:54;;;;;;;;;;;;;;;;;;5116727;27;19912;-59
2021/07/09 07:58:20;;;;;;;;;;;;;;;;;;5117053;27;19914;-59
2021/07/09 08:00:46;;;;;;;;;;;;;;;;;;5113033;27;20367;-59
2021/07/09 08:03:12;;;;;;;;;;;;;;;;;;5120159;27;19908;-59
2021/07/09 08:05:38;;;;;;;;;;;;;;;;;;5117466;27;19960;-59
2021/07/09 08:08:03;;;;;;;;;;;;;;;;;;5117089;27;19951;-59
2021/07/09 08:10:29;;;;;;;;;;;;;;;;;;5116607;27;19919;-59
2021/07/09 08:12:55;;;;;;;;;;;;;;;;;;5113964;27;19912;-59
2021/07/09 08:15:21;;;;;;;;;;;;;;;;;;5118054;27;19947;-59
2021/07/09 08:17:47;;;;;;;;;;;;;;;;;;5117906;27;20317;-60
2021/07/09 08:20:13;;;;;;;;;;;;;;;;;;5116981;27;19911;-60
2021/07/09 08:22:39;;;;;;;;;;;;;;;;;;5116571;27;19935;-60
2021/07/09 08:25:05;;;;;;;;;;;;;;;;;;5115351;27;19946;-60
2021/07/09 08:27:31;;;;;;;;;;;;;;;;;;5115941;27;19915;-59
2021/07/09 08:29:56;;;;;;;;;;;;;;;;;;5117997;27;19911;-59
2021/07/09 08:32:22;;;;;;;;;;;;;;;;;;5116317;27;19918;-59
2021/07/09 08:34:48;;;;;;;;;;;;;;;;;;5116865;27;19947;-59
2021/07/09 08:37:14;;;;;;;;;;;;;;;;;;5116333;27;20270;-59
2021/07/09 08:39:40;;;;;;;;;;;;;;;;;;5113001;28;20351;-59
2021/07/09 08:42:06;;;;;;;;;;;;;;;;;;5118549;27;20321;-59
2021/07/09 08:44:32;;;;;;;;;;;;;;;;;;5117860;27;19915;-59
2021/07/09 08:46:58;;;;;;;;;;;;;;;;;;5116080;27;20006;-59
2021/07/09 08:49:24;;;;;;;;;;;;;;;;;;5116391;27;19923;-59
2021/07/09 08:51:50;;;;;;;;;;;;;;;;;;5112647;27;19920;-59
2021/07/09 08:54:15;;;;;;;;;;;;;;;;;;5118012;27;19907;-59
2021/07/09 08:56:41;;;;;;;;;;;;;;;;;;5116425;27;19915;-59
2021/07/09 08:59:07;;;;;;;;;;;;;;;;;;5116418;27;20314;-59
2021/07/09 09:01:33;;;;;;;;;;;;;;;;;;5116141;27;19915;-60
2021/07/09 09:03:59;;;;;;;;;;;;;;;;;;5113365;27;19918;-60
2021/07/09 09:06:25;;;;;;;;;;;;;;;;;;5116479;27;20447;-59
2021/07/09 09:08:51;;;;;;;;;;;;;;;;;;5117100;27;19908;-59
2021/07/09 09:11:17;;;;;;;;;;;;;;;;;;5115551;27;19924;-60
2021/07/09 09:13:42;;;;;;;;;;;;;;;;;;5116027;27;19912;-59
2021/07/09 09:16:11;;;;;;;;;;;;;;;;;;5114386;27;19912;-60
2021/07/09 09:18:37;;;;;;;;;;;;;;;;;;5113333;27;20020;-60
2021/07/09 09:21:03;;;;;;;;;;;;;;;;;;5118033;27;20000;-59
2021/07/09 09:23:29;;;;;;;;;;;;;;;;;;5115982;27;19912;-60
2021/07/09 09:25:55;;;;;;;;;;;;;;;;;;5115562;27;19916;-59
2021/07/09 09:28:21;;;;;;;;;;;;;;;;;;5115401;27;19921;-59
2021/07/09 09:30:46;;;;;;;;;;;;;;;;;;5111177;28;20011;-59
2021/07/09 09:33:12;;;;;;;;;;;;;;;;;;5118867;27;19908;-59
2021/07/09 09:35:40;;;;;;;;;;;;;;;;;;5115480;27;20363;-59
2021/07/09 09:38:06;;;;;;;;;;;;;;;;;;5115547;27;20010;-59
2021/07/09 09:40:32;;;;;;;;;;;;;;;;;;5114824;27;20390;-59
2021/07/09 09:42:57;;;;;;;;;;;;;;;;;;5112541;27;20390;-59
2021/07/09 09:45:23;;;;;;;;;;;;;;;;;;5115387;27;19911;-59
2021/07/09 09:47:49;;;;;;;;;;;;;;;;;;5116501;27;19908;-59
2021/07/09 09:50:15;;;;;;;;;;;;;;;;;;5114890;27;19920;-59
2021/07/09 09:52:41;;;;;;;;;;;;;;;;;;5115049;27;20291;-59
2021/07/09 09:55:07;;;;;;;;;;;;;;;;;;5113082;27;20278;-59
2021/07/09 09:57:33;;;;;;;;;;;;;;;;;;5113554;27;19907;-59
2021/07/09 09:59:59;;;;;;;;;;;;;;;;;;5116334;27;19980;-59
2021/07/09 10:02:25;;;;;;;;;;;;;;;;;;5115185;27;19939;-59
2021/07/09 10:04:52;;;;;;;;;;;;;;;;;;5114558;27;20291;-59
2021/07/09 10:07:18;;;;;;;;;;;;;;;;;;5114384;27;19918;-58
2021/07/09 10:09:44;;;;;;;;;;;;;;;;;;5110087;28;20028;-59
2021/07/09 10:12:10;;;;;;;;;;;;;;;;;;5117695;27;20397;-60
2021/07/09 10:14:36;;;;;;;;;;;;;;;;;;5114680;27;19919;-59
2021/07/09 10:17:02;;;;;;;;;;;;;;;;;;5114637;27;19994;-59
2021/07/09 10:19:28;;;;;;;;;;;;;;;;;;5114120;27;20312;-59
2021/07/09 10:21:53;;;;;;;;;;;;;;;;;;5111265;27;19916;-59
2021/07/09 10:24:19;;;;;;;;;;;;;;;;;;5115668;27;19986;-59
2021/07/09 10:26:45;;;;;;;;;;;;;;;;;;5115277;27;19994;-59
2021/07/09 10:29:11;;;;;;;;;;;;;;;;;;5113699;27;19948;-59
2021/07/09 10:31:37;;;;;;;;;;;;;;;;;;5114111;27;20018;-59
2021/07/09 10:34:03;;;;;;;;;;;;;;;;;;5093812;27;20002;-59
2021/07/09 10:36:29;;;;;;;;;;;;;;;;;;5113549;27;19912;-59
2021/07/09 10:38:55;;;;;;;;;;;;;;;;;;5093444;28;20397;-59
2021/07/09 10:41:22;;;;;;;;;;;;;;;;;;5111517;27;19908;-58
2021/07/09 10:43:48;;;;;;;;;;;;;;;;;;5114088;27;19955;-58
2021/07/09 10:46:16;;;;;;;;;;;;;;;;;;5113505;27;19950;-59
2021/07/09 10:48:42;;;;;;;;;;;;;;;;;;5110317;28;20287;-59
2021/07/09 10:51:08;;;;;;;;;;;;;;;;;;5116860;27;19916;-59
2021/07/09 10:53:34;;;;;;;;;;;;;;;;;;5114132;27;19995;-58
2021/07/09 10:56:00;;;;;;;;;;;;;;;;;;5114238;27;19912;-58
2021/07/09 10:58:26;;;;;;;;;;;;;;;;;;5113280;27;19914;-59
2021/07/09 11:00:54;;;;;;;;;;;;;;;;;;5110400;28;19920;-59
2021/07/09 11:03:20;;;;;;;;;;;;;;;;;;5114740;27;19908;-58
2021/07/09 11:05:46;;;;;;;;;;;;;;;;;;5116265;27;20363;-59
2021/07/09 11:08:12;;;;;;;;;;;;;;;;;;5113490;28;19907;-59
2021/07/09 11:10:38;;;;;;;;;;;;;;;;;;5112993;27;20085;-59
2021/07/09 11:13:04;;;;;;;;;;;;;;;;;;5111657;28;19985;-59
2021/07/09 11:15:30;;;;;;;;;;;;;;;;;;5113305;28;19915;-59
2021/07/09 11:17:55;;;;;;;;;;;;;;;;;;5115216;28;20346;-59
2021/07/09 11:20:21;;;;;;;;;;;;;;;;;;5113589;28;19912;-59
2021/07/09 11:22:47;;;;;;;;;;;;;;;;;;5113125;28;20362;-59
2021/07/09 11:25:13;;;;;;;;;;;;;;;;;;5113064;28;19957;-59
2021/07/09 11:27:39;;;;;;;;;;;;;;;;;;5110502;28;20185;-59
2021/07/09 11:30:05;;;;;;;;;;;;;;;;;;5115709;28;19923;-59
2021/07/09 11:32:31;;;;;;;;;;;;;;;;;;5113740;28;20010;-59
2021/07/09 11:34:57;;;;;;;;;;;;;;;;;;5113725;28;20057;-68
2021/07/09 11:37:23;;;;;;;;;;;;;;;;;;5113828;28;19918;-68
2021/07/09 11:39:49;;;;;;;;;;;;;;;;;;5091050;28;19919;-68
2021/07/09 11:42:14;;;;;;;;;;;;;;;;;;5116408;28;19908;-68
2021/07/09 11:44:40;;;;;;;;;;;;;;;;;;5114942;28;19908;-68
2021/07/09 11:47:06;;;;;;;;;;;;;;;;;;5095240;28;19927;-68
2021/07/09 11:49:32;;;;;;;;;;;;;;;;;;5113312;28;19911;-68
2021/07/09 11:51:58;;;;;;;;;;;;;;;;;;5092163;28;19934;-68
2021/07/09 11:54:24;;;;;;;;;;;;;;;;;;5113566;28;19942;-68
2021/07/09 11:56:50;;;;;;;;;;;;;;;;;;5114612;28;19908;-68
2021/07/09 11:59:16;;;;;;;;;;;;;;;;;;5113320;28;19919;-68
2021/07/09 12:01:42;;;;;;;;;;;;;;;;;;5113346;28;19980;-68
2021/07/09 12:04:08;;;;;;;;;;;;;;;;;;5112010;28;19919;-68
2021/07/09 12:06:34;;;;;;;;;;;;;;;;;;5111192;28;19923;-68
2021/07/09 12:08:59;;;;;;;;;;;;;;;;;;5115332;28;19908;-68
2021/07/09 12:11:25;;;;;;;;;;;;;;;;;;5113242;28;19920;-68
2021/07/09 12:13:51;;;;;;;;;;;;;;;;;;5113187;28;20064;-68
2021/07/09 12:16:17;;;;;;;;;;;;;;;;;;5094550;28;19932;-68
2021/07/09 12:18:43;;;;;;;;;;;;;;;;;;5092504;28;19912;-69
2021/07/09 12:21:09;;;;;;;;;;;;;;;;;;5116464;28;19912;-68
2021/07/09 12:23:35;;;;;;;;;;;;;;;;;;5115340;27;20317;-68
2021/07/09 12:26:01;;;;;;;;;;;;;;;;;;5116939;27;19918;-68
2021/07/09 12:28:27;;;;;;;;;;;;;;;;;;5116091;27;20354;-68
2021/07/09 12:30:53;;;;;;;;;;;;;;;;;;5113334;27;19927;-68
2021/07/09 12:33:26;;;;;;;;;;;;;;;;;;5118033;27;19908;-68
2021/07/09 12:35:51;;;;;;;;;;;;;;;;;;5119779;27;19914;-68
2021/07/09 12:38:17;;;;;;;;;;;;;;;;;;5117126;27;20349;-68
2021/07/09 12:40:43;;;;;;;;;;;;;;;;;;5116414;27;19915;-69
2021/07/09 12:43:09;;;;;;;;;;;;;;;;;;5114887;27;19912;-68
2021/07/09 12:45:35;;;;;;;;;;;;;;;;;;5114503;27;19958;-68
2021/07/09 12:48:01;;;;;;;;;;;;;;;;;;5118380;27;19911;-68
2021/07/09 12:50:29;;;;;;;;;;;;;;;;;;5116289;27;19920;-68
2021/07/09 12:52:54;;;;;;;;;;;;;;;;;;5097735;28;20340;-68
2021/07/09 12:55:20;;;;;;;;;;;;;;;;;;5116011;27;19994;-69
2021/07/09 12:57:46;;;;;;;;;;;;;;;;;;5112051;28;19911;-68
2021/07/09 13:00:12;;;;;;;;;;;;;;;;;;5119339;27;19915;-69
2021/07/09 13:02:38;;;;;;;;;;;;;;;;;;5115653;27;20350;-68
2021/07/09 13:05:04;;;;;;;;;;;;;;;;;;5116188;27;19922;-69
2021/07/09 13:07:30;;;;;;;;;;;;;;;;;;5115731;27;20284;-69
2021/07/09 13:09:56;;;;;;;;;;;;;;;;;;5112615;27;19955;-68
2021/07/09 13:12:22;;;;;;;;;;;;;;;;;;5116865;27;20391;-68
2021/07/09 13:14:48;;;;;;;;;;;;;;;;;;5116720;27;19995;-68
2021/07/09 13:17:14;;;;;;;;;;;;;;;;;;5117183;27;20018;-69
2021/07/09 13:19:40;;;;;;;;;;;;;;;;;;5115585;27;19912;-69
2021/07/09 13:22:06;;;;;;;;;;;;;;;;;;5114084;27;19939;-69
2021/07/09 13:24:32;;;;;;;;;;;;;;;;;;5096216;28;19912;-69
2021/07/09 13:26:58;;;;;;;;;;;;;;;;;;5100977;28;19908;-69
2021/07/09 13:29:24;;;;;;;;;;;;;;;;;;5115935;27;19938;-69
2021/07/09 13:31:50;;;;;;;;;;;;;;;;;;5115029;27;19920;-68
2021/07/09 13:34:16;;;;;;;;;;;;;;;;;;5114929;27;20372;-68
2021/07/09 13:36:42;;;;;;;;;;;;;;;;;;5111465;28;19920;-69
2021/07/09 13:39:08;;;;;;;;;;;;;;;;;;5118293;27;19915;-69
2021/07/09 13:41:34;;;;;;;;;;;;;;;;;;5097128;28;19916;-69
2021/07/09 13:44:00;;;;;;;;;;;;;;;;;;5096975;28;19912;-69
2021/07/09 13:46:26;;;;;;;;;;;;;;;;;;5114781;27;19919;-69
2021/07/09 13:48:52;;;;;;;;;;;;;;;;;;5111032;27;19916;-69
2021/07/09 13:51:18;;;;;;;;;;;;;;;;;;5117294;27;19919;-69
2021/07/09 13:53:44;;;;;;;;;;;;;;;;;;5115406;27;19916;-69
2021/07/09 13:56:10;;;;;;;;;;;;;;;;;;5114888;27;19911;-69
2021/07/09 13:58:36;;;;;;;;;;;;;;;;;;5115071;27;19964;-69
2021/07/09 14:01:02;;;;;;;;;;;;;;;;;;5112695;27;19945;-69
2021/07/09 14:03:28;;;;;;;;;;;;;;;;;;5114934;27;19930;-69
2021/07/09 14:05:53;;;;;;;;;;;;;;;;;;5115968;27;19907;-69
2021/07/09 14:08:20;;;;;;;;;;;;;;;;;;5114575;27;19971;-69
2021/07/09 14:10:49;;;;;;;;;;;;;;;;;;5114184;27;19920;-69
2021/07/09 14:13:16;;;;;;;;;;;;;;;;;;5114382;27;19915;-69
2021/07/09 14:15:41;;;;;;;;;;;;;;;;;;5110661;28;19935;-69
2021/07/09 14:18:07;;;;;;;;;;;;;;;;;;5117490;27;19914;-69
2021/07/09 14:20:33;;;;;;;;;;;;;;;;;;5114373;27;19915;-69
2021/07/09 14:22:59;;;;;;;;;;;;;;;;;;5114257;27;19919;-69
2021/07/09 14:25:25;;;;;;;;;;;;;;;;;;5114235;27;20369;-69
2021/07/09 14:27:51;;;;;;;;;;;;;;;;;;5110732;27;20014;-69
2021/07/09 14:30:17;;;;;;;;;;;;;;;;;;5116557;27;19916;-68
2021/07/09 14:32:45;;;;;;;;;;;;;;;;;;5114603;27;19916;-68
2021/07/09 14:35:11;;;;;;;;;;;;;;;;;;5114317;27;19911;-68
2021/07/09 14:37:37;;;;;;;;;;;;;;;;;;5114313;27;20416;-68
2021/07/09 14:40:03;;;;;;;;;;;;;;;;;;5112246;27;19995;-68
2021/07/09 14:42:29;;;;;;;;;;;;;;;;;;5113811;27;19907;-68
2021/07/09 14:44:55;;;;;;;;;;;;;;;;;;5114954;27;19915;-69
2021/07/09 14:47:21;;;;;;;;;;;;;;;;;;5114190;27;19912;-69
2021/07/09 14:49:47;;;;;;;;;;;;;;;;;;5113812;27;19944;-69
2021/07/09 14:52:13;;;;;;;;;;;;;;;;;;5113132;27;19969;-69
2021/07/09 14:54:39;;;;;;;;;;;;;;;;;;5111075;27;19913;-69
2021/07/09 14:57:05;;;;;;;;;;;;;;;;;;5116792;27;19912;-69
2021/07/09 14:59:31;;;;;;;;;;;;;;;;;;5113766;27;19919;-70
2021/07/09 15:01:58;;;;;;;;;;;;;;;;;;5113785;27;19912;-69
2021/07/09 15:04:25;;;;;;;;;;;;;;;;;;5113606;27;19916;-69
2021/07/09 15:06:54;;;;;;;;;;;;;;;;;;5109554;28;19912;-69
2021/07/09 15:09:20;;;;;;;;;;;;;;;;;;5115239;27;20267;-69
2021/07/09 15:11:46;;;;;;;;;;;;;;;;;;5114394;27;19927;-69
2021/07/09 15:14:12;;;;;;;;;;;;;;;;;;5113910;28;19912;-69
2021/07/09 15:16:37;;;;;;;;;;;;;;;;;;5113419;28;19990;-69
2021/07/09 15:19:03;;;;;;;;;;;;;;;;;;5093049;28;19919;-69
2021/07/09 15:21:29;;;;;;;;;;;;;;;;;;5113597;28;19912;-69
2021/07/09 15:23:55;;;;;;;;;;;;;;;;;;5115070;28;20182;-70
2021/07/09 15:26:21;;;;;;;;;;;;;;;;;;5113762;28;20280;-69
2021/07/09 15:28:47;;;;;;;;;;;;;;;;;;5095320;28;19959;-70
2021/07/09 15:31:13;;;;;;;;;;;;;;;;;;5112358;28;19972;-69
2021/07/09 15:33:39;;;;;;;;;;;;;;;;;;5110646;28;19919;-69
2021/07/09 15:36:05;;;;;;;;;;;;;;;;;;5116330;28;19912;-70
2021/07/09 15:38:30;;;;;;;;;;;;;;;;;;5113576;28;19912;-69
2021/07/09 15:40:56;;;;;;;;;;;;;;;;;;5113089;28;20363;-69
2021/07/09 15:43:22;;;;;;;;;;;;;;;;;;5113358;28;19911;-69
2021/07/09 15:45:48;;;;;;;;;;;;;;;;;;5109389;28;20371;-70
2021/07/09 15:48:14;;;;;;;;;;;;;;;;;;5116745;28;19951;-69
2021/07/09 15:50:40;;;;;;;;;;;;;;;;;;5114834;28;19920;-69
2021/07/09 15:53:06;;;;;;;;;;;;;;;;;;5113253;28;19961;-70
2021/07/09 15:55:31;;;;;;;;;;;;;;;;;;5113590;28;19939;-70
2021/07/09 15:57:57;;;;;;;;;;;;;;;;;;5093757;27;20364;-69
2021/07/09 16:00:23;;;;;;;;;;;;;;;;;;5118057;27;19918;-69
2021/07/09 16:02:49;;;;;;;;;;;;;;;;;;5117577;27;20006;-69
2021/07/09 16:05:15;;;;;;;;;;;;;;;;;;5117156;27;19912;-70
2021/07/09 16:07:41;;;;;;;;;;;;;;;;;;5117122;27;20015;-69
2021/07/09 16:10:07;;;;;;;;;;;;;;;;;;5115258;27;19924;-70
2021/07/09 16:12:37;;;;;;;;;;;;;;;;;;5115314;27;19956;-70
2021/07/09 16:15:03;;;;;;;;;;;;;;;;;;5119647;27;19934;-70
2021/07/09 16:17:29;;;;;;;;;;;;;;;;;;5116590;27;20394;-70
2021/07/09 16:19:55;;;;;;;;;;;;;;;;;;5116791;27;19912;-69
2021/07/09 16:22:21;;;;;;;;;;;;;;;;;;5116980;27;20286;-69
2021/07/09 16:24:48;;;;;;;;;;;;;;;;;;5112263;28;20004;-70
2021/07/09 16:27:13;;;;;;;;;;;;;;;;;;5119599;27;20359;-70
2021/07/09 16:29:41;;;;;;;;;;;;;;;;;;5115982;27;19994;-69
2021/07/09 16:32:07;;;;;;;;;;;;;;;;;;5095447;28;19924;-69
2021/07/09 16:34:33;;;;;;;;;;;;;;;;;;5114079;27;19923;-68
2021/07/09 16:36:59;;;;;;;;;;;;;;;;;;5107009;27;19912;-68